sensor_id;sensor_type;location;lat;lon;timestamp;pressure;altitude;pressure_sealevel;temperature;humidity
15558;BME280;7880;50.110;9.372;2023-05-19T00:02:25;9.917576385621214;;;9.937;97.12847289994288
15558;BME280;7880;50.110;9.372;2023-05-19T00:07:36;9.96295680142939;;;9.937;97.55747713273547
15558;BME280;7880;50.110;9.372;2023-05-19T00:12:34;10.038590880163246;;;9.937;97.38028326657923
15558;BME280;7880;50.110;9.372;2023-05-19T00:17:41;9.907491851976374;;;9.812;97.69571663372619
15558;BME280;7880;50.110;9.372;2023-05-19T00:22:46;9.897407319495688;;;9.812;98.03855901833325
15558;BME280;7880;50.110;9.372;2023-05-19T00:27:49;9.998252696689452;;;9.875;96.39344189128124
15558;BME280;7880;50.110;9.372;2023-05-19T00:32:55;9.932703188271262;;;9.875;95.98769975699871
15558;BME280;7880;50.110;9.372;2023-05-19T00:38:01;9.816731101559707;;;9.75;96.59786852810025
15558;BME280;7880;50.110;9.372;2023-05-19T00:43:08;9.897407319495688;;;9.812;97.91337437990681
15558;BME280;7880;50.110;9.372;2023-05-19T00:48:18;9.882280522957444;;;9.812;95.79809210394652
15558;BME280;7880;50.110;9.372;2023-05-19T00:53:23;9.786477539042243;;;9.75;96.66669698527231
15558;BME280;7880;50.110;9.372;2023-05-19T00:58:38;9.791519798734225;;;9.687;98.09649702000947
15558;BME280;7880;50.110;9.372;2023-05-19T01:03:36;9.725970445439453;;;9.687;98.05587422139284
15558;BME280;7880;50.110;9.372;2023-05-19T01:08:45;9.700759168807418;;;9.625;98.75082240987432
15558;BME280;7880;50.110;9.372;2023-05-19T01:13:47;9.731012701638974;;;9.625;97.52473281766841
15558;BME280;7880;50.110;9.372;2023-05-19T01:19:00;9.715885933913523;;;9.625;97.8980228701861
15558;BME280;7880;50.110;9.372;2023-05-19T01:24:13;9.544449416088174;;;9.5;98.15509192476726
15558;BME280;7880;50.110;9.372;2023-05-19T01:29:14;9.564618400722974;;;9.5;99.46585377467102
15558;BME280;7880;50.110;9.372;2023-05-19T01:34:16;9.65033663737122;;;9.562;98.72271234134887
15558;BME280;7880;50.110;9.372;2023-05-19T01:39:17;9.504111460788408;;;9.437;100.0
15558;BME280;7880;50.110;9.372;2023-05-19T01:44:23;9.625125382567058;;;9.5;99.29751462068309
15558;BME280;7880;50.110;9.372;2023-05-19T01:49:27;9.468815765180626;;;9.375;99.42584614073145
15558;BME280;7880;50.110;9.372;2023-05-19T01:54:34;9.549491661810317;;;9.375;99.51053394351915
15558;BME280;7880;50.110;9.372;2023-05-19T01:59:48;9.665463393746176;;;9.562;98.20885807604955
15558;BME280;7880;50.110;9.372;2023-05-19T02:04:50;9.49906921768561;;;9.437;100.0
15558;BME280;7880;50.110;9.372;2023-05-19T02:10:03;9.458731283340603;;;9.437;100.0
15558;BME280;7880;50.110;9.372;2023-05-19T02:15:01;9.383097706647822;;;9.312;100.0
15558;BME280;7880;50.110;9.372;2023-05-19T02:20:16;9.272168579284335;;;9.25;100.0
15558;BME280;7880;50.110;9.372;2023-05-19T02:25:06;9.25704189101234;;;9.125;100.0
15558;BME280;7880;50.110;9.372;2023-05-19T02:30:11;9.181408488942543;;;9.125;100.0
15558;BME280;7880;50.110;9.372;2023-05-19T02:35:19;9.151155146450037;;;9.062;100.0
15558;BME280;7880;50.110;9.372;2023-05-19T02:40:27;9.105775152356363;;;8.937;100.0
15558;BME280;7880;50.110;9.372;2023-05-19T02:45:28;9.201577389758313;;;9.125;100.0
15558;BME280;7880;50.110;9.372;2023-05-19T02:50:33;9.070479617692763;;;9.0;100.0
15558;BME280;7880;50.110;9.372;2023-05-19T02:55:39;9.009973020019242;;;8.812;100.0
15558;BME280;7880;50.110;9.372;2023-05-19T03:00:44;8.878875535499537;;;8.75;100.0
15558;BME280;7880;50.110;9.372;2023-05-19T03:05:49;8.5360061215295;;;8.437;100.0
15558;BME280;7880;50.110;9.372;2023-05-19T03:10:56;8.475499894056702;;;8.312;100.0
15558;BME280;7880;50.110;9.372;2023-05-19T03:16:08;8.3645719192049;;;8.187;100.0
15558;BME280;7880;50.110;9.372;2023-05-19T03:21:10;8.15280072200694;;;7.937;100.0
15558;BME280;7880;50.110;9.372;2023-05-19T03:26:15;8.117505572387017;;;7.937;100.0
15558;BME280;7880;50.110;9.372;2023-05-19T03:31:23;8.051957475213566;;;7.875;100.0
15558;BME280;7880;50.110;9.372;2023-05-19T03:36:31;7.941030038200552;;;7.75;100.0
15558;BME280;7880;50.110;9.372;2023-05-19T03:41:36;7.915819276706316;;;7.687;100.0
15558;BME280;7880;50.110;9.372;2023-05-19T03:46:37;7.809934157883982;;;7.625;100.0
15558;BME280;7880;50.110;9.372;2023-05-19T03:51:42;7.673796336562373;;;7.562;100.0
15558;BME280;7880;50.110;9.372;2023-05-19T03:56:47;7.638501380482921;;;7.5;100.0
15558;BME280;7880;50.110;9.372;2023-05-19T04:01:53;7.69396488929633;;;7.562;100.0
15558;BME280;7880;50.110;9.372;2023-05-19T04:07:02;7.719175586762139;;;7.562;100.0
15558;BME280;7880;50.110;9.372;2023-05-19T04:12:05;7.840187035879353;;;7.625;100.0
15558;BME280;7880;50.110;9.372;2023-05-19T04:17:08;7.658669925067807;;;7.562;100.0
15558;BME280;7880;50.110;9.372;2023-05-19T04:22:14;8.051957475213566;;;7.875;100.0
15558;BME280;7880;50.110;9.372;2023-05-19T04:27:21;8.203222389059373;;;8.062;100.0
15558;BME280;7880;50.110;9.372;2023-05-19T04:32:28;8.35952974187676;;;8.187;100.0
15558;BME280;7880;50.110;9.372;2023-05-19T04:37:30;8.611638964805753;;;8.437;100.0
15558;BME280;7880;50.110;9.372;2023-05-19T04:42:35;8.707440660294377;;;8.562;100.0
15558;BME280;7880;50.110;9.372;2023-05-19T04:47:41;8.808284663787344;;;8.75;100.0
15558;BME280;7880;50.110;9.372;2023-05-19T04:52:50;9.06543739961926;;;8.937;100.0
15558;BME280;7880;50.110;9.372;2023-05-19T04:58:01;9.226788522326387;;;9.125;100.0
15558;BME280;7880;50.110;9.372;2023-05-19T05:03:04;9.312506427482003;;;9.312;100.0
15558;BME280;7880;50.110;9.372;2023-05-19T05:08:04;9.519238191843034;;;9.5;100.0
15558;BME280;7880;50.110;9.372;2023-05-19T05:13:10;9.58478739001439;;;9.562;100.0
15558;BME280;7880;50.110;9.372;2023-05-19T05:18:15;9.72092818953097;;;9.687;100.0
15558;BME280;7880;50.110;9.372;2023-05-19T05:23:20;9.857069201214472;;;9.812;100.0
15558;BME280;7880;50.110;9.372;2023-05-19T05:28:25;9.967999071307712;;;9.875;100.0
15558;BME280;7880;50.110;9.372;2023-05-19T05:33:32;10.033548606210388;;;10.0;100.0
15558;BME280;7880;50.110;9.372;2023-05-19T05:38:36;10.043633154407143;;;10.0;99.8224563192366
15558;BME280;7880;50.110;9.372;2023-05-19T05:43:41;10.164647823572158;;;10.125;100.0
15558;BME280;7880;50.110;9.372;2023-05-19T05:48:47;10.300789526762674;;;10.25;100.0
15558;BME280;7880;50.110;9.372;2023-05-19T05:52:36;10.351212433638285;;;10.312;100.0
15558;BME280;7880;50.110;9.372;2023-05-19T05:57:37;10.507523629907519;;;10.5;100.0
15558;BME280;7880;50.110;9.372;2023-05-19T06:02:48;10.593242791766533;;;10.625;100.0
15558;BME280;7880;50.110;9.372;2023-05-19T06:07:48;10.749554421100765;;;10.75;99.20991802833092
15558;BME280;7880;50.110;9.372;2023-05-19T06:12:52;10.8756123904197;;;10.875;97.84296473809832
15558;BME280;7880;50.110;9.372;2023-05-19T06:17:58;11.042009188444354;;;11.0;100.0
15558;BME280;7880;50.110;9.372;2023-05-19T06:23:04;11.178152258932823;;;11.187;100.0
15558;BME280;7880;50.110;9.372;2023-05-19T06:28:09;11.389930790296058;;;11.375;97.03604742238161
15558;BME280;7880;50.110;9.372;2023-05-19T06:33:14;11.56137092980207;;;11.5;94.0206681829892
15558;BME280;7880;50.110;9.372;2023-05-19T06:38:20;11.71768429139629;;;11.687;92.46239733368255
15558;BME280;7880;50.110;9.372;2023-05-19T06:43:25;11.884082693333038;;;11.875;92.37352443990096
15558;BME280;7880;50.110;9.372;2023-05-19T06:48:30;11.87904031286016;;;11.875;89.32188928560174
15558;BME280;7880;50.110;9.372;2023-05-19T06:53:35;11.964760820480297;;;11.937;91.53851541229709
15558;BME280;7880;50.110;9.372;2023-05-19T06:58:40;11.853828414861345;;;11.875;88.71464055837312
15558;BME280;7880;50.110;9.372;2023-05-19T07:03:49;11.969803205900826;;;11.937;90.56752277614518
15558;BME280;7880;50.110;9.372;2023-05-19T07:08:58;12.252177253947593;;;12.187;90.28184791752022
15558;BME280;7880;50.110;9.372;2023-05-19T07:13:55;12.474043217697181;;;12.375;92.10208637674211
15558;BME280;7880;50.110;9.372;2023-05-19T07:19:03;12.574891569302418;;;12.5;88.54300246944585
15558;BME280;7880;50.110;9.372;2023-05-19T07:24:05;12.50934012751677;;;12.5;86.55589045060015
15558;BME280;7880;50.110;9.372;2023-05-19T07:29:17;12.8623100100609;;;12.75;87.51836917991025
15558;BME280;7880;50.110;9.372;2023-05-19T07:34:16;13.144686942879343;;;13.0;86.83417429969293
15558;BME280;7880;50.110;9.372;2023-05-19T07:39:28;13.563211575732566;;;13.437;82.97942261929772
15558;BME280;7880;50.110;9.372;2023-05-19T07:44:30;13.432107258215547;;;13.375;82.1255270676334
15558;BME280;7880;50.110;9.372;2023-05-19T07:49:33;14.1279708849499;;;13.812;81.19199526716879
15558;BME280;7880;50.110;9.372;2023-05-19T07:54:48;14.410351908602753;;;14.25;80.48947871838995
15558;BME280;7880;50.110;9.372;2023-05-19T07:59:44;14.163268462993438;;;14.125;78.78580191829627
15558;BME280;7880;50.110;9.372;2023-05-19T08:04:48;14.339756567124278;;;14.25;79.4227731569258
15558;BME280;7880;50.110;9.372;2023-05-19T08:09:56;13.699358575238147;;;13.75;79.23348539263252
15558;BME280;7880;50.110;9.372;2023-05-19T08:14:58;13.94139820933924;;;13.75;79.80757553318077
15558;BME280;7880;50.110;9.372;2023-05-19T08:20:05;14.415394435176859;;;14.125;80.81846898340619
15558;BME280;7880;50.110;9.372;2023-05-19T08:25:11;14.702818930987268;;;14.5;76.20002109581948
15558;BME280;7880;50.110;9.372;2023-05-19T08:30:15;14.808712404646212;;;14.75;75.76874784629554
15558;BME280;7880;50.110;9.372;2023-05-19T08:35:17;14.929733674559975;;;14.687;74.79656594366786
15558;BME280;7880;50.110;9.372;2023-05-19T08:40:21;15.24237273107865;;;15.062;73.81305428383654
15558;BME280;7880;50.110;9.372;2023-05-19T08:45:28;15.045712548866868;;;15.062;71.87132400738764
15558;BME280;7880;50.110;9.372;2023-05-19T08:50:39;15.423905599868158;;;15.187;72.40719088055866
15558;BME280;7880;50.110;9.372;2023-05-19T08:55:45;15.761759443231858;;;15.5;72.30654588700662
15558;BME280;7880;50.110;9.372;2023-05-19T09:00:46;15.549970313999802;;;15.437;71.48533333872173
15558;BME280;7880;50.110;9.372;2023-05-19T09:05:50;15.847483760543401;;;15.687;72.59051085635846
15558;BME280;7880;50.110;9.372;2023-05-19T09:10:55;15.696205610275502;;;15.625;72.60491472676902
15558;BME280;7880;50.110;9.372;2023-05-19T09:16:02;15.514672175707528;;;15.375;72.31333810883861
15558;BME280;7880;50.110;9.372;2023-05-19T09:21:12;15.464246288599679;;;15.5;71.51055757708693
15558;BME280;7880;50.110;9.372;2023-05-19T09:26:14;15.53484253869974;;;15.437;70.45599624586004
15558;BME280;7880;50.110;9.372;2023-05-19T09:31:24;15.34322427828447;;;15.187;71.61817104980055
15558;BME280;7880;50.110;9.372;2023-05-19T09:36:22;15.565098091919207;;;15.437;72.39194555709918
15558;BME280;7880;50.110;9.372;2023-05-19T09:41:27;15.73654642473557;;;15.625;71.61720060291398
15558;BME280;7880;50.110;9.372;2023-05-19T09:46:35;15.665950011654058;;;15.562;72.4320231997613
15558;BME280;7880;50.110;9.372;2023-05-19T09:51:55;15.938250776432687;;;15.687;75.5757239900182
15558;BME280;7880;50.110;9.372;2023-05-19T09:56:59;15.706290812144289;;;15.625;73.56972288434969
15558;BME280;7880;50.110;9.372;2023-05-19T10:02:14;16.205509759695268;;;16.0;72.96602865025872
15558;BME280;7880;50.110;9.372;2023-05-19T10:07:06;15.892867256700992;;;15.75;72.54088766662586
15558;BME280;7880;50.110;9.372;2023-05-19T10:12:11;16.18533924187068;;;16.0;72.47914304436249
15558;BME280;7880;50.110;9.372;2023-05-19T10:17:16;15.650822216272354;;;15.687;72.79297284434028
15558;BME280;7880;50.110;9.372;2023-05-19T10:22:22;15.837398542376468;;;15.687;73.92683484917023
15558;BME280;7880;50.110;9.372;2023-05-19T10:27:29;16.482854851993032;;;16.187;73.38341124883569
15558;BME280;7880;50.110;9.372;2023-05-19T10:32:35;16.75515816277475;;;16.562;75.49770437834391
15558;BME280;7880;50.110;9.372;2023-05-19T10:37:44;16.75011550115887;;;16.5;73.2559064644583
15558;BME280;7880;50.110;9.372;2023-05-19T10:42:56;17.077889111550757;;;16.812;69.89931180500267
15558;BME280;7880;50.110;9.372;2023-05-19T10:47:53;17.380450458690756;;;17.187;70.48354270536932
15558;BME280;7880;50.110;9.372;2023-05-19T10:53:01;17.415749350772238;;;17.25;70.76443104244893
15558;BME280;7880;50.110;9.372;2023-05-19T10:57:07;17.420792050805176;;;17.312;68.70423968335297
15558;BME280;7880;50.110;9.372;2023-05-19T11:02:37;17.824208996404195;;;17.625;67.16246502850052
15558;BME280;7880;50.110;9.372;2023-05-19T11:07:20;18.32848279774771;;;18.0;72.0556530829921
15558;BME280;7880;50.110;9.372;2023-05-19T11:12:24;18.3637820728356;;;18.187;69.17890479289674
15558;BME280;7880;50.110;9.372;2023-05-19T11:17:35;18.207456819998335;;;18.187;65.51375163445799
15558;BME280;7880;50.110;9.372;2023-05-19T11:22:36;18.358739318378504;;;18.125;66.11404193191395
15558;BME280;7880;50.110;9.372;2023-05-19T11:27:45;18.560449723672356;;;18.312;67.50737635075669
15558;BME280;7880;50.110;9.372;2023-05-19T11:32:47;18.36882482758374;;;18.125;66.82339127763105
15558;BME280;7880;50.110;9.372;2023-05-19T11:37:53;18.701647284446516;;;18.437;68.80044637388629
15558;BME280;7880;50.110;9.372;2023-05-19T11:42:58;18.146943893987917;;;18.125;66.90522571990306
15558;BME280;7880;50.110;9.372;2023-05-19T11:48:04;17.83429444390931;;;17.625;65.95664089263094
15558;BME280;7880;50.110;9.372;2023-05-19T11:53:17;17.985576296184444;;;17.812;63.282844720936694
15558;BME280;7880;50.110;9.372;2023-05-19T11:58:17;18.323440045327878;;;18.0;63.94738148175276
15558;BME280;7880;50.110;9.372;2023-05-19T12:03:27;18.096516487660118;;;17.937;64.95920791934276
15558;BME280;7880;50.110;9.372;2023-05-19T12:08:37;18.499936553189762;;;18.125;64.33415356624887
15558;BME280;7880;50.110;9.372;2023-05-19T12:13:35;18.44950894313515;;;18.25;67.80045439290845
15558;BME280;7880;50.110;9.372;2023-05-19T12:18:40;18.036003638483816;;;17.875;62.79173194967792
15558;BME280;7880;50.110;9.372;2023-05-19T12:23:53;17.743525458272778;;;17.625;62.81246685836037
15558;BME280;7880;50.110;9.372;2023-05-19T12:28:51;18.212499565724283;;;18.0;63.08662425313
15558;BME280;7880;50.110;9.372;2023-05-19T12:33:57;17.83429444390931;;;17.562;64.75506847086675
15558;BME280;7880;50.110;9.372;2023-05-19T12:39:04;17.60737215662375;;;17.375;63.099694453205274
15558;BME280;7880;50.110;9.372;2023-05-19T12:44:14;17.97549083121703;;;17.687;64.07143193983289
15558;BME280;7880;50.110;9.372;2023-05-19T12:49:15;17.693098284775623;;;17.437;62.401678222775715
15558;BME280;7880;50.110;9.372;2023-05-19T12:54:21;17.84437989257858;;;17.562;61.17517490369153
15558;BME280;7880;50.110;9.372;2023-05-19T12:59:26;18.469679983664538;;;18.125;64.53113093174973
15558;BME280;7880;50.110;9.372;2023-05-19T13:04:47;18.419252391072224;;;18.25;61.69548289101565
15558;BME280;7880;50.110;9.372;2023-05-19T13:09:41;18.05617458355264;;;17.75;63.31383423905317
15558;BME280;7880;50.110;9.372;2023-05-19T13:14:43;18.58062078981311;;;18.25;61.82266480940747
15558;BME280;7880;50.110;9.372;2023-05-19T13:19:55;18.358739318378504;;;18.125;58.56702567420455
15558;BME280;7880;50.110;9.372;2023-05-19T13:24:59;18.343611056753435;;;18.312;58.04428545167158
15558;BME280;7880;50.110;9.372;2023-05-19T13:30:08;18.197371329419546;;;18.062;58.03208102519035
15558;BME280;7880;50.110;9.372;2023-05-19T13:35:08;18.247798793955006;;;18.062;60.56787753678803
15558;BME280;7880;50.110;9.372;2023-05-19T13:40:12;17.859508067765272;;;17.812;58.65599016029587
15558;BME280;7880;50.110;9.372;2023-05-19T13:45:17;18.273012537136673;;;18.0;58.724332239793924
15558;BME280;7880;50.110;9.372;2023-05-19T13:50:22;18.076345533278072;;;17.812;58.82239655249856
15558;BME280;7880;50.110;9.372;2023-05-19T13:55:31;18.20241407456342;;;18.0;59.07055985183039
15558;BME280;7880;50.110;9.372;2023-05-19T14:00:40;18.15702937874594;;;17.875;59.10598123017376
15558;BME280;7880;50.110;9.372;2023-05-19T14:05:40;18.131815669033678;;;17.937;59.51342719452094
15558;BME280;7880;50.110;9.372;2023-05-19T14:10:45;17.849422617349774;;;17.75;58.574877212803564
15558;BME280;7880;50.110;9.372;2023-05-19T14:15:51;18.20241407456342;;;17.937;62.290848138114335
15558;BME280;7880;50.110;9.372;2023-05-19T14:20:56;18.323440045327878;;;18.0;59.11415083293886
15558;BME280;7880;50.110;9.372;2023-05-19T14:26:04;17.96540536741377;;;17.937;58.12878976139201
15558;BME280;7880;50.110;9.372;2023-05-19T14:31:18;17.809080827329307;;;17.625;57.36342295109157
15558;BME280;7880;50.110;9.372;2023-05-19T14:36:13;18.278055286646122;;;18.0;57.31468228819805
15558;BME280;7880;50.110;9.372;2023-05-19T14:41:32;17.78386721802526;;;17.625;58.71682907949968
15558;BME280;7880;50.110;9.372;2023-05-19T14:46:24;18.383953093574384;;;18.062;58.41754026003948
15558;BME280;7880;50.110;9.372;2023-05-19T14:51:31;17.90489260904142;;;17.875;58.83557301583835
15558;BME280;7880;50.110;9.372;2023-05-19T14:56:36;18.187285840004915;;;17.875;60.279761449915654
15558;BME280;7880;50.110;9.372;2023-05-19T15:01:49;17.839337168098428;;;17.75;58.55289214897221
15558;BME280;7880;50.110;9.372;2023-05-19T15:06:53;17.632585714996093;;;17.437;58.99421719651511
15558;BME280;7880;50.110;9.372;2023-05-19T15:12:00;17.788909939303995;;;17.5;58.67945380929123
15558;BME280;7880;50.110;9.372;2023-05-19T15:17:04;18.000704495818354;;;17.812;59.46385646112874
15558;BME280;7880;50.110;9.372;2023-05-19T15:22:13;17.70318371714675;;;17.5;60.06130943925082
15558;BME280;7880;50.110;9.372;2023-05-19T15:27:15;18.08643100988702;;;17.812;60.5432955130207
15558;BME280;7880;50.110;9.372;2023-05-19T15:32:22;18.671390645072098;;;18.5;61.1766156767568
15558;BME280;7880;50.110;9.372;2023-05-19T15:37:30;18.106601966597374;;;18.125;61.29679024148659
15558;BME280;7880;50.110;9.372;2023-05-19T15:42:33;17.854465342412006;;;17.75;59.61237569405212
15558;BME280;7880;50.110;9.372;2023-05-19T15:47:37;17.642671140382298;;;17.5;61.42196253285587
15558;BME280;7880;50.110;9.372;2023-05-19T15:52:45;17.819166273088193;;;17.562;61.141590430974425
15558;BME280;7880;50.110;9.372;2023-05-19T15:57:48;17.55190235381597;;;17.312;61.03055845251102
15558;BME280;7880;50.110;9.372;2023-05-19T16:02:53;17.33002349474118;;;17.312;63.47485343667373
15558;BME280;7880;50.110;9.372;2023-05-19T16:07:58;17.077889111550757;;;16.937;64.08668422324602
15558;BME280;7880;50.110;9.372;2023-05-19T16:13:06;17.219084276497597;;;16.937;64.19173696280986
15558;BME280;7880;50.110;9.372;2023-05-19T16:18:07;17.2039562121965;;;16.937;64.97303779821563
15558;BME280;7880;50.110;9.372;2023-05-19T16:23:12;17.516603406728244;;;17.187;66.14506066460643
15558;BME280;7880;50.110;9.372;2023-05-19T16:28:22;17.57207318712608;;;17.375;64.77632123524191
15558;BME280;7880;50.110;9.372;2023-05-19T16:33:23;17.34010888520279;;;17.125;66.17637740932699
15558;BME280;7880;50.110;9.372;2023-05-19T16:38:28;17.385493156686426;;;17.187;63.03309961619306
15558;BME280;7880;50.110;9.372;2023-05-19T16:43:33;17.093017154023983;;;17.062;63.76080451527434
15558;BME280;7880;50.110;9.372;2023-05-19T16:48:38;17.30481002368033;;;17.125;63.47871609336498
15558;BME280;7880;50.110;9.372;2023-05-19T16:53:43;17.335066189826467;;;17.125;64.450725902062
15558;BME280;7880;50.110;9.372;2023-05-19T16:58:48;17.335066189826467;;;17.062;62.788866529874575
15558;BME280;7880;50.110;9.372;2023-05-19T17:03:55;17.40566395157948;;;17.25;64.43363300623683
15558;BME280;7880;50.110;9.372;2023-05-19T17:08:57;17.208998900005827;;;17.125;63.20503291997585
15558;BME280;7880;50.110;9.372;2023-05-19T17:14:07;16.89635280618095;;;16.812;64.66459008257266
15558;BME280;7880;50.110;9.372;2023-05-19T17:24:23;16.8156701248663;;;16.625;66.20617697625285
15558;BME280;7880;50.110;9.372;2023-05-19T17:29:21;16.472769560484448;;;16.375;65.71307257245267
15558;BME280;7880;50.110;9.372;2023-05-19T17:34:29;16.316447690967472;;;16.187;66.24807553325022
15558;BME280;7880;50.110;9.372;2023-05-19T17:39:31;16.034060506615788;;;16.0;67.98069455318041
15558;BME280;7880;50.110;9.372;2023-05-19T17:44:38;16.230722913524367;;;15.937;67.34291591085406
15558;BME280;7880;50.110;9.372;2023-05-19T17:49:52;16.160126101138303;;;15.937;67.82402130618888
15558;BME280;7880;50.110;9.372;2023-05-19T17:54:53;15.913037707004696;;;15.812;68.49512938114361
15558;BME280;7880;50.110;9.372;2023-05-19T18:00:00;15.902952481270768;;;15.75;68.34500749683636
15558;BME280;7880;50.110;9.372;2023-05-19T18:05:04;15.837398542376468;;;15.687;69.30051512751167
15558;BME280;7880;50.110;9.372;2023-05-19T18:10:10;15.499544406519272;;;15.375;70.25618111165198
15558;BME280;7880;50.110;9.372;2023-05-19T18:15:15;15.363394601695472;;;15.312;70.95951114868276
15558;BME280;7880;50.110;9.372;2023-05-19T18:20:20;15.464246288599679;;;15.25;73.71458255665289
15558;BME280;7880;50.110;9.372;2023-05-19T18:25:34;15.32305395953008;;;15.062;72.86206953951415
15558;BME280;7880;50.110;9.372;2023-05-19T18:30:32;15.222202435607324;;;15.0;76.82580897104323
15558;BME280;7880;50.110;9.372;2023-05-19T18:35:46;15.106223327014595;;;14.875;73.42938063775614
15558;BME280;7880;50.110;9.372;2023-05-19T18:40:48;14.970074135117466;;;14.687;73.66260655878362
15558;BME280;7880;50.110;9.372;2023-05-19T18:45:52;14.949903902510414;;;14.812;76.01499193693535
15558;BME280;7880;50.110;9.372;2023-05-19T18:50:56;14.738116741279374;;;14.625;74.51443465367188
15558;BME280;7880;50.110;9.372;2023-05-19T18:56:01;14.450692129344679;;;14.375;75.80598784809861
15558;BME280;7880;50.110;9.372;2023-05-19T19:01:07;14.556585297413402;;;14.375;75.49692695555332
15558;BME280;7880;50.110;9.372;2023-05-19T19:06:13;14.304458917776355;;;14.187;78.43361874590644
15558;BME280;7880;50.110;9.372;2023-05-19T19:11:19;14.208651084289887;;;14.125;77.86275674988443
15558;BME280;7880;50.110;9.372;2023-05-19T19:16:28;13.860718256799737;;;13.812;80.09073969761391
15558;BME280;7880;50.110;9.372;2023-05-19T19:21:31;14.213693599222461;;;14.0;78.02223088812376
15558;BME280;7880;50.110;9.372;2023-05-19T19:26:37;13.845590773993171;;;13.687;82.64967378469103
15558;BME280;7880;50.110;9.372;2023-05-19T19:31:42;14.344799089623848;;;13.875;88.70528677522813
15558;BME280;7880;50.110;9.372;2023-05-19T19:36:49;14.082588305562968;;;13.812;84.19264457332426
15558;BME280;7880;50.110;9.372;2023-05-19T19:41:54;13.870803246792638;;;13.625;84.50803125517999
15558;BME280;7880;50.110;9.372;2023-05-19T19:47:09;13.623721327097154;;;13.437;86.30835102372258
15558;BME280;7880;50.110;9.372;2023-05-19T19:52:05;13.699358575238147;;;13.5;87.6895596005638
15558;BME280;7880;50.110;9.372;2023-05-19T19:57:11;13.764910909929313;;;13.437;85.92292213475648
15558;BME280;7880;50.110;9.372;2023-05-19T20:02:18;13.593466446176171;;;13.437;87.06505207848652
15558;BME280;7880;50.110;9.372;2023-05-19T20:07:28;13.679188635997708;;;13.437;87.90888742798666
15558;BME280;7880;50.110;9.372;2023-05-19T20:12:31;13.517829289712244;;;13.312;88.20657766741289
15558;BME280;7880;50.110;9.372;2023-05-19T20:17:33;13.346385310828918;;;13.187;89.2409084929425
15558;BME280;7880;50.110;9.372;2023-05-19T20:22:39;13.366555173235247;;;13.125;90.0972550019704
15558;BME280;7880;50.110;9.372;2023-05-19T20:27:44;13.290918213222175;;;13.125;90.69924778817571
15558;BME280;7880;50.110;9.372;2023-05-19T20:32:53;13.139644489646889;;;12.937;93.481342226047
15558;BME280;7880;50.110;9.372;2023-05-19T20:37:59;13.064007726084673;;;12.937;94.46053514457515
15558;BME280;7880;50.110;9.372;2023-05-19T20:43:02;12.872394884802635;;;12.75;96.2433608202255
15558;BME280;7880;50.110;9.372;2023-05-19T20:48:07;13.104347325168783;;;12.812;95.00237061859302
15558;BME280;7880;50.110;9.372;2023-05-19T20:53:18;13.05392282922403;;;12.812;98.69059481566791
15558;BME280;7880;50.110;9.372;2023-05-19T20:58:19;12.675740037322976;;;12.562;100.0
15558;BME280;7880;50.110;9.372;2023-05-19T21:03:31;12.942989040591055;;;12.687;96.33705714580914
15558;BME280;7880;50.110;9.372;2023-05-19T21:07:35;12.766503758076578;;;12.562;96.88556224925352
15558;BME280;7880;50.110;9.372;2023-05-19T21:12:40;12.60010367539362;;;12.437;100.0
15558;BME280;7880;50.110;9.372;2023-05-19T21:17:47;12.620273365505273;;;12.437;99.05423942603612
15558;BME280;7880;50.110;9.372;2023-05-19T21:22:56;12.519424961513142;;;12.375;100.0
15558;BME280;7880;50.110;9.372;2023-05-19T21:27:59;12.605146097484976;;;12.437;100.0
15558;BME280;7880;50.110;9.372;2023-05-19T21:33:04;12.771546189772199;;;12.562;100.0
15558;BME280;7880;50.110;9.372;2023-05-19T21:38:14;12.373194982507266;;;12.375;100.0
15558;BME280;7880;50.110;9.372;2023-05-19T21:43:16;12.499255294684554;;;12.312;100.0